EW8375 Weather Reports


Display with metric or nautical units.
time (UTC)temp
F
wind
direction
speed
MPH
gust
MPH
rain 1hr
in
rain 24hr
in
rain mn
in
humidity
%
barometer
mb
20210919053010 71 233 2.0 11.0 0.00 0.00 0.00 32 1004.9
20210919051522 67 231 0.0 3.0 0.00 0.00 0.00 33 1004.9
20210919050019 70 257 0.0 2.0 0.00 0.00 0.00 30 1004.9
20210919044521 69 228 0.0 4.0 0.00 0.00 0.00 30 1004.9
20210919043009 67 111 0.0 2.0 0.00 0.00 0.00 32 1004.8
20210919041508 66 234 0.0 3.0 0.00 0.00 0.00 33 1004.7
20210919040007 66 241 1.0 4.0 0.00 0.00 0.00 33 1004.6
20210919034511 69 251 0.0 2.0 0.00 0.00 0.00 29 1004.8
20210919033009 72 207 0.0 0.0 0.00 0.00 0.00 27 1004.8
20210919031518 73 226 0.0 5.0 0.00 0.00 0.00 27 1005.0
20210919030004 72 241 0.0 1.0 0.00 0.00 0.00 28 1005.0
20210919024503 72 285 0.0 3.0 0.00 0.00 0.00 27 1004.8
20210919023003 72 247 0.0 4.0 0.00 0.00 0.00 27 1004.9
20210919021502 72 236 0.0 0.0 0.00 0.00 0.00 25 1005.0
20210919020016 75 236 0.0 1.0 0.00 0.00 0.00 23 1004.9
20210919014723 76 65 0.0 3.0 0.00 0.00 0.00 23 1005.0
20210919013127 74 229 0.0 4.0 0.00 0.00 0.00 24 1005.1
20210919011617 76 244 0.0 1.0 0.00 0.00 0.00 23 1005.2
20210919010247 78 233 0.0 4.0 0.00 0.00 0.00 22 1005.4
20210919004703 77 113 0.0 2.0 0.00 0.00 0.00 21 1005.7
20210919003212 78 252 0.0 2.0 0.00 0.00 0.00 21 1005.7
20210919001625 79 236 0.0 1.0 0.00 0.00 0.00 20 1005.4
20210919000211 81 236 0.0 1.0 0.00 0.00 0.00 20 1005.1
20210918234646 85 236 0.0 0.0 0.00 0.00 0.00 17 1005.2
20210918233142 87 236 0.0 1.0 0.00 0.00 0.00 15 1005.4
20210918231557 87 244 0.0 1.0 0.00 0.00 0.00 15 1005.5
20210918230119 87 227 0.0 1.0 0.00 0.00 0.00 14 1005.7
20210918224634 88 44 0.0 1.0 0.00 0.00 0.00 13 1005.7
20210918223119 89 38 1.0 5.0 0.00 0.00 0.00 12 1005.7
20210918221651 89 41 3.0 7.0 0.00 0.00 0.00 11 1005.8
20210918220147 89 120 3.0 8.0 0.00 0.00 0.00 11 1006.3
20210918214618 89 41 2.0 6.0 0.00 0.00 0.00 12 1006.8
20210918213110 89 97 2.0 7.0 0.00 0.00 0.00 13 1007.0
20210918211658 89 75 2.0 6.0 0.00 0.00 0.00 14 1007.3
20210918210045 89 119 0.0 4.0 0.00 0.00 0.00 16 1007.9
20210918204543 87 46 3.0 8.0 0.00 0.00 0.00 15 1008.2
20210918203107 87 75 1.0 8.0 0.00 0.00 0.00 17 1008.5
20210918201524 86 44 5.0 8.0 0.00 0.00 0.00 18 1008.9
20210918200026 85 89 3.0 7.0 0.00 0.00 0.00 19 1009.4
20210918194519 86 113 1.0 3.0 0.00 0.00 0.00 19 1009.9
20210918193020 85 86 3.0 8.0 0.00 0.00 0.00 20 1010.3
20210918190022 83 42 1.0 6.0 0.00 0.00 0.00 20 1011.0
20210918183122 84 95 0.0 3.0 0.00 0.00 0.00 18 1011.8
20210918181646 82 176 0.0 4.0 0.00 0.00 0.00 18 1012.1
20210918180100 81 237 0.0 3.0 0.00 0.00 0.00 21 1012.5
20210918174705 80 250 0.0 4.0 0.00 0.00 0.00 21 1013.0
20210918173108 79 188 0.0 3.0 0.00 0.00 0.00 30 1013.3
20210918171619 76 243 0.0 3.0 0.00 0.00 0.00 32 1013.6
20210918170059 73 100 2.0 4.0 0.00 0.00 0.00 35 1014.0
20210918164541 73 121 0.0 5.0 0.00 0.00 0.00 39 1014.2
20210918163122 71 113 2.0 4.0 0.00 0.00 0.00 41 1014.4
20210918161533 70 110 0.0 3.0 0.00 0.00 0.00 45 1014.5
20210918160041 68 38 1.0 4.0 0.00 0.00 0.00 46 1014.8
20210918154558 69 84 1.0 6.0 0.00 0.00 0.00 45 1014.9
20210918153017 68 173 0.0 1.0 0.00 0.00 0.00 45 1015.1
20210918151520 66 108 0.0 4.0 0.00 0.00 0.00 48 1015.2
20210918150009 66 87 0.0 1.0 0.00 0.00 0.00 49 1015.2
20210918144517 63 98 0.0 2.0 0.00 0.00 0.00 52 1015.4
20210918143005 63 112 0.0 2.0 0.00 0.00 0.00 52 1015.5
20210918141502 63 242 0.0 0.0 0.00 0.00 0.00 53 1015.7
20210918140220 61 242 0.0 1.0 0.00 0.00 0.00 57 1015.8
20210918134638 55 242 0.0 0.0 0.00 0.00 0.00 68 1016.0
20210918133139 51 242 0.0 0.0 0.00 0.00 0.00 74 1016.1
20210918131636 47 242 0.0 1.0 0.00 0.00 0.00 79 1015.9
20210918130157 45 246 0.0 1.0 0.00 0.00 0.00 82 1016.0
20210918124608 45 252 0.0 0.0 0.00 0.00 0.00 80 1015.8
20210918123125 44 254 0.0 0.0 0.00 0.00 0.00 82 1015.8
20210918121638 44 248 0.0 0.0 0.00 0.00 0.00 83 1015.8
20210918120108 44 249 0.0 0.0 0.00 0.00 0.00 82 1015.7
20210918114605 44 249 0.0 1.0 0.00 0.00 0.00 82 1015.7
20210918113101 45 234 0.0 0.0 0.00 0.00 0.00 79 1015.8
20210918111557 46 250 0.0 0.0 0.00 0.00 0.00 80 1016.0
20210918110120 44 240 0.0 1.0 0.00 0.00 0.00 80 1015.8
20210918104557 44 240 0.0 1.0 0.00 0.00 0.00 79 1015.9
20210918103113 45 247 0.0 0.0 0.00 0.00 0.00 76 1016.0
20210918101539 45 259 0.0 0.0 0.00 0.00 0.00 77 1016.0
20210918100142 46 259 0.0 1.0 0.00 0.00 0.00 76 1016.0
20210918094630 46 246 0.0 2.0 0.00 0.00 0.00 75 1016.1
20210918093047 45 242 1.0 3.0 0.00 0.00 0.00 75 1016.2
20210918091541 45 243 0.0 3.0 0.00 0.00 0.00 73 1016.3
20210918090112 46 237 0.0 0.0 0.00 0.00 0.00 73 1016.4
20210918084543 46 255 0.0 0.0 0.00 0.00 0.00 71 1016.4
20210918083027 46 257 0.0 0.0 0.00 0.00 0.00 71 1016.4
20210918081524 46 274 0.0 0.0 0.00 0.00 0.00 72 1016.1
20210918080020 46 274 0.0 0.0 0.00 0.00 0.00 73 1016.0
20210918074518 46 272 0.0 0.0 0.00 0.00 0.00 73 1016.1
20210918073035 47 272 0.0 0.0 0.00 0.00 0.00 72 1016.1
20210918071533 47 254 0.0 0.0 0.00 0.00 0.00 72 1015.9
20210918070021 48 245 0.0 0.0 0.00 0.00 0.00 72 1015.9
20210918064509 49 245 0.0 0.0 0.00 0.00 0.00 70 1016.0
20210918063026 49 245 0.0 0.0 0.00 0.00 0.00 71 1015.8
20210918061515 49 259 0.0 0.0 0.00 0.00 0.00 72 1015.7
20210918060126 50 256 0.0 1.0 0.00 0.00 0.00 71 1015.4
20210918060002 50 256 0.0 1.0 0.00 0.00 0.00 71 1015.4
20210918054642 49 247 0.0 1.0 0.00 0.00 0.00 73 1015.4